sensor_id;sensor_type;location;lat;lon;timestamp;pressure;altitude;pressure_sealevel;temperature;humidity
17060;BME280;8646;49.716;9.266;2023-04-19T00:00:08;101059.00;;;11.78;70.94
17060;BME280;8646;49.716;9.266;2023-04-19T00:03:12;101042.88;;;11.73;71.35
17060;BME280;8646;49.716;9.266;2023-04-19T00:06:16;101045.69;;;11.70;71.12
17060;BME280;8646;49.716;9.266;2023-04-19T00:09:19;101051.09;;;11.70;71.64
17060;BME280;8646;49.716;9.266;2023-04-19T00:12:23;101048.56;;;11.66;71.89
17060;BME280;8646;49.716;9.266;2023-04-19T00:15:25;101049.88;;;11.54;72.45
17060;BME280;8646;49.716;9.266;2023-04-19T00:18:28;101056.38;;;11.50;72.71
17060;BME280;8646;49.716;9.266;2023-04-19T00:21:31;101043.53;;;11.55;72.79
17060;BME280;8646;49.716;9.266;2023-04-19T00:24:33;101046.13;;;11.58;72.81
17060;BME280;8646;49.716;9.266;2023-04-19T00:27:38;101043.47;;;11.57;72.56
17060;BME280;8646;49.716;9.266;2023-04-19T00:30:41;101037.69;;;11.67;72.34
17060;BME280;8646;49.716;9.266;2023-04-19T00:33:43;101040.91;;;11.52;72.96
17060;BME280;8646;49.716;9.266;2023-04-19T00:36:46;101040.59;;;11.61;72.87
17060;BME280;8646;49.716;9.266;2023-04-19T00:39:49;101038.63;;;11.66;73.08
17060;BME280;8646;49.716;9.266;2023-04-19T00:42:53;101028.72;;;11.65;73.28
17060;BME280;8646;49.716;9.266;2023-04-19T00:45:56;101036.09;;;11.60;73.46
17060;BME280;8646;49.716;9.266;2023-04-19T00:48:59;101029.97;;;11.55;73.55
17060;BME280;8646;49.716;9.266;2023-04-19T00:52:02;101033.50;;;11.57;73.68
17060;BME280;8646;49.716;9.266;2023-04-19T00:55:06;101025.47;;;11.54;73.57
17060;BME280;8646;49.716;9.266;2023-04-19T00:58:11;101030.28;;;11.46;74.14
17060;BME280;8646;49.716;9.266;2023-04-19T01:01:13;101036.38;;;11.53;74.07
17060;BME280;8646;49.716;9.266;2023-04-19T01:04:16;101010.59;;;11.41;74.09
17060;BME280;8646;49.716;9.266;2023-04-19T01:07:40;101029.06;;;11.55;74.21
17060;BME280;8646;49.716;9.266;2023-04-19T01:10:43;101019.34;;;11.49;74.65
17060;BME280;8646;49.716;9.266;2023-04-19T01:13:47;101019.34;;;11.49;74.80
17060;BME280;8646;49.716;9.266;2023-04-19T01:17:21;101021.44;;;11.41;75.19
17060;BME280;8646;49.716;9.266;2023-04-19T01:20:24;101014.25;;;11.40;75.39
17060;BME280;8646;49.716;9.266;2023-04-19T01:23:28;101014.19;;;11.41;75.51
17060;BME280;8646;49.716;9.266;2023-04-19T01:26:31;101007.22;;;11.34;75.71
17060;BME280;8646;49.716;9.266;2023-04-19T01:29:33;101004.56;;;11.33;75.85
17060;BME280;8646;49.716;9.266;2023-04-19T01:32:36;100993.13;;;11.25;75.83
17060;BME280;8646;49.716;9.266;2023-04-19T01:35:39;100995.78;;;11.26;75.95
17060;BME280;8646;49.716;9.266;2023-04-19T01:38:43;100990.13;;;11.32;75.76
17060;BME280;8646;49.716;9.266;2023-04-19T01:41:48;100989.03;;;11.38;75.89
17060;BME280;8646;49.716;9.266;2023-04-19T01:44:50;100989.97;;;11.37;76.12
17060;BME280;8646;49.716;9.266;2023-04-19T01:47:53;100989.16;;;11.35;76.46
17060;BME280;8646;49.716;9.266;2023-04-19T01:50:57;100992.19;;;11.26;76.48
17060;BME280;8646;49.716;9.266;2023-04-19T01:54:01;100989.56;;;11.23;76.46
17060;BME280;8646;49.716;9.266;2023-04-19T01:57:04;100988.19;;;11.36;76.45
17060;BME280;8646;49.716;9.266;2023-04-19T02:00:11;100982.06;;;11.31;76.70
17060;BME280;8646;49.716;9.266;2023-04-19T02:03:15;100981.69;;;11.15;76.97
17060;BME280;8646;49.716;9.266;2023-04-19T02:06:18;100982.28;;;11.25;76.60
17060;BME280;8646;49.716;9.266;2023-04-19T02:09:22;100976.06;;;11.21;76.92
17060;BME280;8646;49.716;9.266;2023-04-19T02:12:25;100975.31;;;11.18;77.14
17060;BME280;8646;49.716;9.266;2023-04-19T02:15:28;100972.59;;;11.18;77.51
17060;BME280;8646;49.716;9.266;2023-04-19T02:18:31;100971.66;;;11.19;77.68
17060;BME280;8646;49.716;9.266;2023-04-19T02:21:36;100964.66;;;11.12;77.88
17060;BME280;8646;49.716;9.266;2023-04-19T02:24:41;100964.22;;;10.99;78.17
17060;BME280;8646;49.716;9.266;2023-04-19T02:27:44;100969.84;;;10.93;78.47
17060;BME280;8646;49.716;9.266;2023-04-19T02:30:47;100965.31;;;10.93;78.33
17060;BME280;8646;49.716;9.266;2023-04-19T02:33:49;100959.69;;;10.99;78.25
17060;BME280;8646;49.716;9.266;2023-04-19T02:36:52;100957.59;;;11.07;78.09
17060;BME280;8646;49.716;9.266;2023-04-19T02:39:56;100964.78;;;11.08;78.23
17060;BME280;8646;49.716;9.266;2023-04-19T02:42:59;100958.22;;;10.89;78.45
17060;BME280;8646;49.716;9.266;2023-04-19T02:46:01;100954.78;;;10.84;78.76
17060;BME280;8646;49.716;9.266;2023-04-19T02:49:04;100952.19;;;10.81;78.96
17060;BME280;8646;49.716;9.266;2023-04-19T02:52:07;100955.09;;;10.75;78.84
17060;BME280;8646;49.716;9.266;2023-04-19T02:55:11;100946.97;;;10.75;79.17
17060;BME280;8646;49.716;9.266;2023-04-19T02:58:14;100951.53;;;10.73;79.27
17060;BME280;8646;49.716;9.266;2023-04-19T03:01:16;100946.13;;;10.73;78.91
17060;BME280;8646;49.716;9.266;2023-04-19T03:04:20;100942.28;;;10.80;78.81
17060;BME280;8646;49.716;9.266;2023-04-19T03:07:23;100943.69;;;10.92;78.72
17060;BME280;8646;49.716;9.266;2023-04-19T03:10:27;100940.81;;;10.96;78.86
17060;BME280;8646;49.716;9.266;2023-04-19T03:13:30;100944.31;;;11.00;79.20
17060;BME280;8646;49.716;9.266;2023-04-19T03:16:33;100936.34;;;10.95;79.26
17060;BME280;8646;49.716;9.266;2023-04-19T03:19:35;100938.31;;;10.90;79.24
17060;BME280;8646;49.716;9.266;2023-04-19T03:22:38;100925.00;;;10.84;79.83
17060;BME280;8646;49.716;9.266;2023-04-19T03:25:43;100926.03;;;10.80;79.68
17060;BME280;8646;49.716;9.266;2023-04-19T03:28:47;100927.09;;;10.76;79.72
17060;BME280;8646;49.716;9.266;2023-04-19T03:31:49;100923.63;;;10.71;79.75
17060;BME280;8646;49.716;9.266;2023-04-19T03:34:52;100917.41;;;10.69;79.94
17060;BME280;8646;49.716;9.266;2023-04-19T03:37:55;100910.84;;;10.76;79.72
17060;BME280;8646;49.716;9.266;2023-04-19T03:40:59;100916.97;;;10.81;79.86
17060;BME280;8646;49.716;9.266;2023-04-19T03:44:02;100910.69;;;10.81;80.49
17060;BME280;8646;49.716;9.266;2023-04-19T03:47:05;100916.97;;;10.81;80.76
17060;BME280;8646;49.716;9.266;2023-04-19T03:50:08;100909.03;;;10.77;80.43
17060;BME280;8646;49.716;9.266;2023-04-19T03:53:11;100905.53;;;10.73;80.75
17060;BME280;8646;49.716;9.266;2023-04-19T03:56:15;100906.28;;;10.78;80.56
17060;BME280;8646;49.716;9.266;2023-04-19T03:59:18;100902.59;;;10.79;80.55
17060;BME280;8646;49.716;9.266;2023-04-19T04:02:21;100905.31;;;10.79;80.78
17060;BME280;8646;49.716;9.266;2023-04-19T04:05:26;100901.84;;;10.76;80.77
17060;BME280;8646;49.716;9.266;2023-04-19T04:08:29;100901.00;;;10.74;81.10
17060;BME280;8646;49.716;9.266;2023-04-19T04:11:33;100901.72;;;10.79;80.75
17060;BME280;8646;49.716;9.266;2023-04-19T04:14:35;100903.50;;;10.80;80.50
17060;BME280;8646;49.716;9.266;2023-04-19T04:17:38;100899.78;;;10.82;80.45
17060;BME280;8646;49.716;9.266;2023-04-19T04:20:42;100907.81;;;10.85;80.26
17060;BME280;8646;49.716;9.266;2023-04-19T04:23:45;100912.13;;;10.91;80.50
17060;BME280;8646;49.716;9.266;2023-04-19T04:26:51;100899.38;;;10.94;80.30
17060;BME280;8646;49.716;9.266;2023-04-19T04:29:54;100914.66;;;10.95;80.22
17060;BME280;8646;49.716;9.266;2023-04-19T04:32:57;100900.38;;;10.92;80.39
17060;BME280;8646;49.716;9.266;2023-04-19T04:35:59;100904.06;;;10.89;80.36
17060;BME280;8646;49.716;9.266;2023-04-19T04:39:03;100905.78;;;10.92;80.47
17060;BME280;8646;49.716;9.266;2023-04-19T04:42:08;100909.34;;;10.94;80.86
17060;BME280;8646;49.716;9.266;2023-04-19T04:45:11;100905.59;;;10.96;81.27
17060;BME280;8646;49.716;9.266;2023-04-19T04:48:13;100908.13;;;11.02;81.62
17060;BME280;8646;49.716;9.266;2023-04-19T04:51:16;100910.47;;;11.12;81.45
17060;BME280;8646;49.716;9.266;2023-04-19T04:54:19;100920.25;;;11.17;81.57
17060;BME280;8646;49.716;9.266;2023-04-19T04:57:23;100912.81;;;11.22;81.73
17060;BME280;8646;49.716;9.266;2023-04-19T05:00:25;100908.38;;;11.20;81.41
17060;BME280;8646;49.716;9.266;2023-04-19T05:03:29;100920.09;;;11.20;81.43
17060;BME280;8646;49.716;9.266;2023-04-19T05:06:32;100911.03;;;11.21;81.94
17060;BME280;8646;49.716;9.266;2023-04-19T05:09:34;100915.47;;;11.24;81.93
17060;BME280;8646;49.716;9.266;2023-04-19T05:12:40;100907.25;;;11.27;81.83
17060;BME280;8646;49.716;9.266;2023-04-19T05:15:43;100900.81;;;11.29;81.81
17060;BME280;8646;49.716;9.266;2023-04-19T05:18:45;100898.09;;;11.29;81.65
17060;BME280;8646;49.716;9.266;2023-04-19T05:21:48;100894.47;;;11.30;81.69
17060;BME280;8646;49.716;9.266;2023-04-19T05:24:51;100889.81;;;11.34;81.15
17060;BME280;8646;49.716;9.266;2023-04-19T05:27:55;100882.50;;;11.36;81.42
17060;BME280;8646;49.716;9.266;2023-04-19T05:30:58;100890.47;;;11.40;81.36
17060;BME280;8646;49.716;9.266;2023-04-19T05:34:01;100881.34;;;11.43;80.92
17060;BME280;8646;49.716;9.266;2023-04-19T05:37:04;100864.38;;;11.38;81.09
17060;BME280;8646;49.716;9.266;2023-04-19T05:40:08;100863.72;;;11.55;81.11
17060;BME280;8646;49.716;9.266;2023-04-19T05:43:12;100851.47;;;11.68;80.71
17060;BME280;8646;49.716;9.266;2023-04-19T05:46:15;100862.75;;;11.80;80.58
17060;BME280;8646;49.716;9.266;2023-04-19T05:49:17;100864.91;;;11.94;79.49
17060;BME280;8646;49.716;9.266;2023-04-19T05:52:20;100866.38;;;12.03;79.23
17060;BME280;8646;49.716;9.266;2023-04-19T05:55:23;100862.41;;;12.11;79.21
17060;BME280;8646;49.716;9.266;2023-04-19T05:58:27;100865.22;;;12.32;78.55
17060;BME280;8646;49.716;9.266;2023-04-19T06:01:30;100863.69;;;12.46;77.99
17060;BME280;8646;49.716;9.266;2023-04-19T06:04:33;100868.66;;;12.57;76.65
17060;BME280;8646;49.716;9.266;2023-04-19T06:07:37;100857.34;;;12.68;76.20
17060;BME280;8646;49.716;9.266;2023-04-19T06:10:47;100861.63;;;12.73;76.38
17060;BME280;8646;49.716;9.266;2023-04-19T06:14:00;100856.06;;;12.76;76.60
17060;BME280;8646;49.716;9.266;2023-04-19T06:17:03;100872.19;;;12.81;76.23
17060;BME280;8646;49.716;9.266;2023-04-19T06:20:07;100860.22;;;12.85;75.78
17060;BME280;8646;49.716;9.266;2023-04-19T06:23:10;100850.63;;;12.76;75.87
17060;BME280;8646;49.716;9.266;2023-04-19T06:26:15;100862.16;;;12.81;76.11
17060;BME280;8646;49.716;9.266;2023-04-19T06:29:19;100859.66;;;12.77;76.38
17060;BME280;8646;49.716;9.266;2023-04-19T06:32:24;100864.28;;;12.75;76.37
17060;BME280;8646;49.716;9.266;2023-04-19T06:35:27;100864.22;;;12.76;76.67
17060;BME280;8646;49.716;9.266;2023-04-19T06:38:29;100872.22;;;12.79;76.35
17060;BME280;8646;49.716;9.266;2023-04-19T06:41:32;100866.31;;;12.70;76.62
17060;BME280;8646;49.716;9.266;2023-04-19T06:44:36;100869.97;;;12.69;77.06
17060;BME280;8646;49.716;9.266;2023-04-19T06:47:39;100843.41;;;12.55;77.03
17060;BME280;8646;49.716;9.266;2023-04-19T06:50:42;100870.91;;;12.68;77.26
17060;BME280;8646;49.716;9.266;2023-04-19T06:53:44;100872.69;;;12.69;77.03
17060;BME280;8646;49.716;9.266;2023-04-19T06:56:48;100858.22;;;12.68;77.34
17060;BME280;8646;49.716;9.266;2023-04-19T06:59:54;100854.16;;;12.78;77.13
17060;BME280;8646;49.716;9.266;2023-04-19T07:02:57;100864.31;;;12.95;76.54
17060;BME280;8646;49.716;9.266;2023-04-19T07:06:01;100860.69;;;12.94;76.52
17060;BME280;8646;49.716;9.266;2023-04-19T07:09:05;100860.63;;;12.96;76.59
17060;BME280;8646;49.716;9.266;2023-04-19T07:12:08;100854.25;;;12.97;75.98
17060;BME280;8646;49.716;9.266;2023-04-19T07:15:12;100852.59;;;12.93;76.38
17060;BME280;8646;49.716;9.266;2023-04-19T07:18:15;100846.00;;;12.98;76.21
17060;BME280;8646;49.716;9.266;2023-04-19T07:21:18;100839.50;;;13.03;75.68
17060;BME280;8646;49.716;9.266;2023-04-19T07:24:20;100830.19;;;13.08;75.37
17060;BME280;8646;49.716;9.266;2023-04-19T07:27:23;100823.13;;;13.24;74.15
17060;BME280;8646;49.716;9.266;2023-04-19T07:30:27;100807.88;;;13.41;72.76
17060;BME280;8646;49.716;9.266;2023-04-19T07:33:30;100812.84;;;13.51;72.57
17060;BME280;8646;49.716;9.266;2023-04-19T07:36:33;100813.19;;;13.62;71.57
17060;BME280;8646;49.716;9.266;2023-04-19T07:39:37;100817.31;;;13.52;70.88
17060;BME280;8646;49.716;9.266;2023-04-19T07:42:42;100790.13;;;13.52;69.70
17060;BME280;8646;49.716;9.266;2023-04-19T07:45:46;100806.28;;;13.55;69.46
17060;BME280;8646;49.716;9.266;2023-04-19T07:48:49;100805.63;;;13.50;70.52
17060;BME280;8646;49.716;9.266;2023-04-19T07:51:52;100795.63;;;13.51;70.77
17060;BME280;8646;49.716;9.266;2023-04-19T07:54:54;100801.88;;;13.53;69.92
17060;BME280;8646;49.716;9.266;2023-04-19T07:57:57;100801.97;;;13.51;70.06
17060;BME280;8646;49.716;9.266;2023-04-19T08:01:04;100794.44;;;13.56;69.32
17060;BME280;8646;49.716;9.266;2023-04-19T08:04:07;100794.09;;;13.45;70.02
17060;BME280;8646;49.716;9.266;2023-04-19T08:07:10;100790.69;;;13.40;69.77
17060;BME280;8646;49.716;9.266;2023-04-19T08:10:13;100771.38;;;13.27;70.66
17060;BME280;8646;49.716;9.266;2023-04-19T08:13:17;100789.38;;;13.49;69.16
17060;BME280;8646;49.716;9.266;2023-04-19T08:16:21;100793.34;;;13.42;69.20
17060;BME280;8646;49.716;9.266;2023-04-19T08:19:44;100784.81;;;13.49;69.39
17060;BME280;8646;49.716;9.266;2023-04-19T08:22:47;100771.66;;;13.40;68.97
17060;BME280;8646;49.716;9.266;2023-04-19T08:25:49;100774.03;;;13.48;69.52
17060;BME280;8646;49.716;9.266;2023-04-19T08:28:52;100784.00;;;13.47;69.30
17060;BME280;8646;49.716;9.266;2023-04-19T08:31:56;100780.22;;;13.51;69.43
17060;BME280;8646;49.716;9.266;2023-04-19T08:34:59;100781.91;;;13.54;69.38
17060;BME280;8646;49.716;9.266;2023-04-19T08:38:02;100777.25;;;13.56;69.23
17060;BME280;8646;49.716;9.266;2023-04-19T08:41:05;100783.22;;;13.64;69.71
17060;BME280;8646;49.716;9.266;2023-04-19T08:44:09;100777.31;;;13.73;70.15
17060;BME280;8646;49.716;9.266;2023-04-19T08:47:15;100781.22;;;13.86;70.15
17060;BME280;8646;49.716;9.266;2023-04-19T08:50:32;100767.47;;;13.89;70.57
17060;BME280;8646;49.716;9.266;2023-04-19T08:53:49;100774.66;;;13.90;71.00
17060;BME280;8646;49.716;9.266;2023-04-19T08:56:53;100768.28;;;13.91;71.41
17060;BME280;8646;49.716;9.266;2023-04-19T08:59:55;100773.84;;;13.88;71.47
17060;BME280;8646;49.716;9.266;2023-04-19T09:02:59;100778.41;;;13.88;71.25
17060;BME280;8646;49.716;9.266;2023-04-19T09:06:03;100766.94;;;13.81;70.33
17060;BME280;8646;49.716;9.266;2023-04-19T09:09:16;100767.69;;;13.66;70.79
17060;BME280;8646;49.716;9.266;2023-04-19T09:12:22;100771.53;;;13.62;70.63
17060;BME280;8646;49.716;9.266;2023-04-19T09:15:35;100773.59;;;13.57;70.71
17060;BME280;8646;49.716;9.266;2023-04-19T09:18:54;100762.06;;;13.52;70.79
17060;BME280;8646;49.716;9.266;2023-04-19T09:22:12;100761.88;;;13.55;70.85
17060;BME280;8646;49.716;9.266;2023-04-19T09:25:23;100751.81;;;13.57;70.27
17060;BME280;8646;49.716;9.266;2023-04-19T09:28:30;100751.53;;;13.63;70.20
17060;BME280;8646;49.716;9.266;2023-04-19T09:31:34;100757.50;;;13.52;70.98
17060;BME280;8646;49.716;9.266;2023-04-19T09:34:55;100750.38;;;13.50;71.57
17060;BME280;8646;49.716;9.266;2023-04-19T09:37:58;100756.81;;;13.66;71.27
17060;BME280;8646;49.716;9.266;2023-04-19T09:41:07;100751.56;;;13.44;71.93
17060;BME280;8646;49.716;9.266;2023-04-19T09:44:14;100755.16;;;13.45;70.85
17060;BME280;8646;49.716;9.266;2023-04-19T09:47:21;100745.22;;;13.44;71.21
17060;BME280;8646;49.716;9.266;2023-04-19T09:50:26;100739.50;;;13.68;70.36
17060;BME280;8646;49.716;9.266;2023-04-19T09:53:32;100735.25;;;13.80;69.57
17060;BME280;8646;49.716;9.266;2023-04-19T09:56:37;100732.28;;;13.86;69.90
17060;BME280;8646;49.716;9.266;2023-04-19T09:59:40;100733.72;;;13.93;69.78
17060;BME280;8646;49.716;9.266;2023-04-19T10:02:46;100738.97;;;13.96;69.30
17060;BME280;8646;49.716;9.266;2023-04-19T10:05:57;100732.28;;;14.03;69.21
17060;BME280;8646;49.716;9.266;2023-04-19T10:09:12;100724.06;;;14.22;68.56
17060;BME280;8646;49.716;9.266;2023-04-19T10:12:19;100713.63;;;14.66;67.55
17060;BME280;8646;49.716;9.266;2023-04-19T10:15:31;100704.69;;;15.13;66.48
17060;BME280;8646;49.716;9.266;2023-04-19T10:18:51;100704.28;;;15.36;66.04
17060;BME280;8646;49.716;9.266;2023-04-19T10:21:55;100699.28;;;15.44;64.98
17060;BME280;8646;49.716;9.266;2023-04-19T10:25:12;100697.34;;;15.46;65.45
17060;BME280;8646;49.716;9.266;2023-04-19T10:28:15;100690.75;;;15.50;64.74
17060;BME280;8646;49.716;9.266;2023-04-19T10:31:19;100688.28;;;15.46;64.27
17060;BME280;8646;49.716;9.266;2023-04-19T10:34:35;100685.91;;;15.40;63.49
17060;BME280;8646;49.716;9.266;2023-04-19T10:37:40;100690.03;;;15.31;64.28
17060;BME280;8646;49.716;9.266;2023-04-19T10:40:57;100664.16;;;15.07;64.11
17060;BME280;8646;49.716;9.266;2023-04-19T10:44:08;100689.28;;;15.12;62.38
17060;BME280;8646;49.716;9.266;2023-04-19T10:47:11;100677.97;;;14.86;61.99
17060;BME280;8646;49.716;9.266;2023-04-19T10:50:15;100684.63;;;14.65;61.04
17060;BME280;8646;49.716;9.266;2023-04-19T10:53:45;100672.38;;;14.39;58.36
17060;BME280;8646;49.716;9.266;2023-04-19T10:57:09;100660.84;;;14.84;56.67
17060;BME280;8646;49.716;9.266;2023-04-19T11:00:19;100659.72;;;14.88;54.42
17060;BME280;8646;49.716;9.266;2023-04-19T11:03:51;100658.06;;;15.02;52.77
17060;BME280;8646;49.716;9.266;2023-04-19T11:06:57;100633.47;;;15.35;50.56
17060;BME280;8646;49.716;9.266;2023-04-19T11:10:04;100628.28;;;15.46;49.74
17060;BME280;8646;49.716;9.266;2023-04-19T11:13:07;100631.47;;;15.54;47.99
17060;BME280;8646;49.716;9.266;2023-04-19T11:16:10;100627.13;;;15.65;46.34
17060;BME280;8646;49.716;9.266;2023-04-19T11:19:14;100608.66;;;15.71;45.77
17060;BME280;8646;49.716;9.266;2023-04-19T11:22:17;100616.13;;;15.51;46.96
17060;BME280;8646;49.716;9.266;2023-04-19T11:25:22;100614.66;;;15.30;46.99
17060;BME280;8646;49.716;9.266;2023-04-19T11:28:25;100605.41;;;15.33;45.63
17060;BME280;8646;49.716;9.266;2023-04-19T11:31:28;100602.44;;;15.37;46.05
17060;BME280;8646;49.716;9.266;2023-04-19T11:34:37;100589.25;;;15.30;45.98
17060;BME280;8646;49.716;9.266;2023-04-19T11:37:40;100582.00;;;15.44;45.82
17060;BME280;8646;49.716;9.266;2023-04-19T11:40:44;100584.91;;;15.41;45.05
17060;BME280;8646;49.716;9.266;2023-04-19T11:43:47;100568.53;;;15.41;45.79
17060;BME280;8646;49.716;9.266;2023-04-19T11:46:59;100560.06;;;15.77;45.77
17060;BME280;8646;49.716;9.266;2023-04-19T11:50:29;100564.13;;;15.70;44.28
17060;BME280;8646;49.716;9.266;2023-04-19T11:53:32;100557.16;;;15.80;44.69
17060;BME280;8646;49.716;9.266;2023-04-19T11:56:36;100556.41;;;16.07;43.81
17060;BME280;8646;49.716;9.266;2023-04-19T12:00:03;100555.13;;;15.98;43.04
17060;BME280;8646;49.716;9.266;2023-04-19T12:03:11;100558.34;;;15.90;43.19
17060;BME280;8646;49.716;9.266;2023-04-19T12:06:15;100554.38;;;15.96;42.29
17060;BME280;8646;49.716;9.266;2023-04-19T12:09:19;100542.50;;;15.97;42.32
17060;BME280;8646;49.716;9.266;2023-04-19T12:12:32;100524.13;;;15.99;41.18
17060;BME280;8646;49.716;9.266;2023-04-19T12:15:41;100536.44;;;16.06;41.44
17060;BME280;8646;49.716;9.266;2023-04-19T12:18:45;100544.13;;;15.99;40.90
17060;BME280;8646;49.716;9.266;2023-04-19T12:21:49;100533.91;;;16.03;40.57
17060;BME280;8646;49.716;9.266;2023-04-19T12:24:53;100539.22;;;15.90;40.32
17060;BME280;8646;49.716;9.266;2023-04-19T12:27:58;100526.38;;;15.92;40.72
17060;BME280;8646;49.716;9.266;2023-04-19T12:31:01;100517.63;;;16.01;39.77
17060;BME280;8646;49.716;9.266;2023-04-19T12:34:04;100523.25;;;15.98;39.86
17060;BME280;8646;49.716;9.266;2023-04-19T12:37:07;100519.19;;;16.06;39.23
17060;BME280;8646;49.716;9.266;2023-04-19T12:40:11;100517.53;;;16.31;38.16
17060;BME280;8646;49.716;9.266;2023-04-19T12:43:15;100495.72;;;16.46;35.96
17060;BME280;8646;49.716;9.266;2023-04-19T12:46:18;100501.06;;;16.47;34.33
17060;BME280;8646;49.716;9.266;2023-04-19T12:49:22;100510.44;;;16.29;35.96
17060;BME280;8646;49.716;9.266;2023-04-19T12:52:25;100486.53;;;16.18;34.42
17060;BME280;8646;49.716;9.266;2023-04-19T12:55:28;100505.16;;;16.26;34.58
17060;BME280;8646;49.716;9.266;2023-04-19T12:58:32;100490.22;;;16.60;32.63
17060;BME280;8646;49.716;9.266;2023-04-19T13:01:35;100487.50;;;16.60;33.22
17060;BME280;8646;49.716;9.266;2023-04-19T13:04:37;100483.41;;;16.38;33.89
17060;BME280;8646;49.716;9.266;2023-04-19T13:07:41;100461.56;;;16.67;32.35
17060;BME280;8646;49.716;9.266;2023-04-19T13:10:44;100484.06;;;16.56;33.91
17060;BME280;8646;49.716;9.266;2023-04-19T13:13:48;100462.50;;;16.80;31.08
17060;BME280;8646;49.716;9.266;2023-04-19T13:16:52;100463.31;;;16.68;31.38
17060;BME280;8646;49.716;9.266;2023-04-19T13:19:55;100458.41;;;16.59;31.80
17060;BME280;8646;49.716;9.266;2023-04-19T13:22:58;100444.94;;;16.84;30.39
17060;BME280;8646;49.716;9.266;2023-04-19T13:26:01;100449.00;;;16.91;28.54
17060;BME280;8646;49.716;9.266;2023-04-19T13:29:05;100444.97;;;16.97;29.06
17060;BME280;8646;49.716;9.266;2023-04-19T13:32:09;100433.06;;;17.25;28.68
17060;BME280;8646;49.716;9.266;2023-04-19T13:35:13;100426.63;;;17.38;28.04
17060;BME280;8646;49.716;9.266;2023-04-19T13:38:15;100436.84;;;17.09;28.83
17060;BME280;8646;49.716;9.266;2023-04-19T13:41:18;100433.22;;;17.48;28.64
17060;BME280;8646;49.716;9.266;2023-04-19T13:44:23;100417.88;;;17.33;28.66
17060;BME280;8646;49.716;9.266;2023-04-19T13:47:26;100419.78;;;17.58;28.39
17060;BME280;8646;49.716;9.266;2023-04-19T13:50:28;100419.63;;;17.34;27.88
17060;BME280;8646;49.716;9.266;2023-04-19T13:53:31;100419.50;;;16.96;28.68
17060;BME280;8646;49.716;9.266;2023-04-19T13:56:34;100417.44;;;16.73;28.48
17060;BME280;8646;49.716;9.266;2023-04-19T13:59:38;100424.88;;;16.42;29.12
17060;BME280;8646;49.716;9.266;2023-04-19T14:02:41;100426.16;;;16.23;28.36
17060;BME280;8646;49.716;9.266;2023-04-19T14:05:45;100419.66;;;16.25;27.33
17060;BME280;8646;49.716;9.266;2023-04-19T14:08:48;100415.53;;;16.32;26.39
17060;BME280;8646;49.716;9.266;2023-04-19T14:11:52;100427.84;;;16.25;25.97
17060;BME280;8646;49.716;9.266;2023-04-19T14:14:56;100425.09;;;15.83;27.13
17060;BME280;8646;49.716;9.266;2023-04-19T14:17:59;100420.63;;;15.52;26.69
17060;BME280;8646;49.716;9.266;2023-04-19T14:21:02;100410.59;;;15.52;25.72
17060;BME280;8646;49.716;9.266;2023-04-19T14:24:05;100422.72;;;15.33;26.62
17060;BME280;8646;49.716;9.266;2023-04-19T14:27:08;100409.78;;;15.36;26.71
17060;BME280;8646;49.716;9.266;2023-04-19T14:30:14;100430.56;;;15.39;27.08
17060;BME280;8646;49.716;9.266;2023-04-19T14:33:16;100427.13;;;15.65;26.81
17060;BME280;8646;49.716;9.266;2023-04-19T14:36:19;100436.56;;;15.59;27.21
17060;BME280;8646;49.716;9.266;2023-04-19T14:39:22;100429.41;;;15.73;26.81
17060;BME280;8646;49.716;9.266;2023-04-19T14:42:25;100422.97;;;15.88;26.54
17060;BME280;8646;49.716;9.266;2023-04-19T14:45:29;100421.47;;;15.82;27.06
17060;BME280;8646;49.716;9.266;2023-04-19T14:48:32;100435.81;;;15.72;26.92
17060;BME280;8646;49.716;9.266;2023-04-19T14:51:35;100435.59;;;15.60;27.00
17060;BME280;8646;49.716;9.266;2023-04-19T14:54:37;100429.75;;;15.67;27.13
17060;BME280;8646;49.716;9.266;2023-04-19T14:57:40;100434.63;;;15.76;26.59
17060;BME280;8646;49.716;9.266;2023-04-19T15:00:44;100432.53;;;15.81;25.65
17060;BME280;8646;49.716;9.266;2023-04-19T15:03:47;100428.59;;;15.56;26.57
17060;BME280;8646;49.716;9.266;2023-04-19T15:06:50;100429.47;;;15.41;26.38
17060;BME280;8646;49.716;9.266;2023-04-19T15:09:53;100430.84;;;15.64;26.85
17060;BME280;8646;49.716;9.266;2023-04-19T15:12:56;100436.78;;;15.56;27.06
17060;BME280;8646;49.716;9.266;2023-04-19T15:16:00;100434.44;;;15.64;27.26
17060;BME280;8646;49.716;9.266;2023-04-19T15:19:05;100432.88;;;15.75;27.96
17060;BME280;8646;49.716;9.266;2023-04-19T15:22:08;100445.28;;;15.80;27.39
17060;BME280;8646;49.716;9.266;2023-04-19T15:25:11;100439.19;;;15.61;27.21
17060;BME280;8646;49.716;9.266;2023-04-19T15:28:16;100440.97;;;15.76;26.76
17060;BME280;8646;49.716;9.266;2023-04-19T15:31:20;100441.94;;;15.61;27.75
17060;BME280;8646;49.716;9.266;2023-04-19T15:34:23;100441.97;;;15.45;28.10
17060;BME280;8646;49.716;9.266;2023-04-19T15:37:26;100443.78;;;15.60;27.72
17060;BME280;8646;49.716;9.266;2023-04-19T15:40:29;100447.56;;;15.58;28.18
17060;BME280;8646;49.716;9.266;2023-04-19T15:43:32;100441.97;;;15.45;27.37
17060;BME280;8646;49.716;9.266;2023-04-19T15:46:36;100442.13;;;15.42;28.07
17060;BME280;8646;49.716;9.266;2023-04-19T15:49:39;100449.22;;;15.60;27.90
17060;BME280;8646;49.716;9.266;2023-04-19T15:52:41;100445.13;;;15.53;28.20
17060;BME280;8646;49.716;9.266;2023-04-19T15:55:44;100446.16;;;15.51;28.43
17060;BME280;8646;49.716;9.266;2023-04-19T15:58:48;100442.94;;;15.44;28.07
17060;BME280;8646;49.716;9.266;2023-04-19T16:01:52;100441.56;;;14.92;28.94
17060;BME280;8646;49.716;9.266;2023-04-19T16:04:55;100456.31;;;15.03;29.33
17060;BME280;8646;49.716;9.266;2023-04-19T16:08:02;100444.22;;;15.23;29.32
17060;BME280;8646;49.716;9.266;2023-04-19T16:11:06;100451.75;;;15.04;30.14
17060;BME280;8646;49.716;9.266;2023-04-19T16:14:08;100470.22;;;14.99;30.57
17060;BME280;8646;49.716;9.266;2023-04-19T16:17:12;100469.06;;;15.03;30.15